createdAt,value
2022-10-08T00:01:39.019Z,73.35
2022-10-08T00:07:42.734Z,71.07
2022-10-08T00:13:46.101Z,71.74
2022-10-08T00:19:47.832Z,71.90
2022-10-08T00:25:49.554Z,71.39
2022-10-08T00:31:51.863Z,72.71
2022-10-08T00:37:53.714Z,70.46
2022-10-08T00:43:59.560Z,71.92
2022-10-08T00:50:10.452Z,72.27
2022-10-08T00:56:12.256Z,72.45
2022-10-08T01:02:14.510Z,70.35
2022-10-08T01:08:26.026Z,72.05
2022-10-08T01:14:49.231Z,72.75
2022-10-08T01:21:06.149Z,72.88
2022-10-08T01:27:31.376Z,72.17
2022-10-08T01:33:48.122Z,72.80
2022-10-08T01:39:53.676Z,72.53
2022-10-08T01:46:00.482Z,72.66
2022-10-08T01:52:08.497Z,72.35
2022-10-08T01:58:16.809Z,72.68
2022-10-08T02:04:35.468Z,73.15
2022-10-08T02:10:37.865Z,74.29
2022-10-08T02:16:48.740Z,74.14
2022-10-08T02:22:59.463Z,74.77
2022-10-08T02:29:18.273Z,73.60
2022-10-08T02:35:39.919Z,73.38
2022-10-08T02:41:46.674Z,73.36
2022-10-08T02:47:53.575Z,72.76
2022-10-08T02:53:56.334Z,74.66
2022-10-08T02:59:59.120Z,73.48
2022-10-08T03:06:08.451Z,73.31
2022-10-08T03:12:10.615Z,72.91
2022-10-08T03:18:13.153Z,72.78
2022-10-08T03:24:15.819Z,72.46
2022-10-08T03:30:17.740Z,71.89
2022-10-08T03:36:20.929Z,74.02
2022-10-08T03:42:22.661Z,73.15
2022-10-08T03:48:24.401Z,73.32
2022-10-08T03:54:26.189Z,74.37
2022-10-08T04:00:28.035Z,74.67
2022-10-08T04:06:30.050Z,73.63
2022-10-08T04:12:31.984Z,74.98
2022-10-08T04:18:34.269Z,74.69
2022-10-08T04:24:36.137Z,75.14
2022-10-08T04:30:38.012Z,76.36
2022-10-08T04:36:40.525Z,75.31
